sensor_id;sensor_type;location;lat;lon;timestamp;pressure;altitude;pressure_sealevel;temperature;humidity
73600;BME280;61877;48.246;9.220;2023-03-13T00:00:06;93717.75;;;2.63;93.82
73600;BME280;61877;48.246;9.220;2023-03-13T00:02:31;93724.91;;;2.63;93.30
73600;BME280;61877;48.246;9.220;2023-03-13T00:04:56;93718.41;;;2.69;93.86
73600;BME280;61877;48.246;9.220;2023-03-13T00:07:22;93729.69;;;2.75;93.32
73600;BME280;61877;48.246;9.220;2023-03-13T00:09:48;93736.25;;;2.77;93.47
73600;BME280;61877;48.246;9.220;2023-03-13T00:12:14;93731.75;;;2.78;93.38
73600;BME280;61877;48.246;9.220;2023-03-13T00:14:39;93720.97;;;2.74;93.75
73600;BME280;61877;48.246;9.220;2023-03-13T00:17:06;93717.25;;;2.75;94.07
73600;BME280;61877;48.246;9.220;2023-03-13T00:19:31;93714.09;;;2.73;93.73
73600;BME280;61877;48.246;9.220;2023-03-13T00:21:56;93718.31;;;2.74;94.15
73600;BME280;61877;48.246;9.220;2023-03-13T00:24:22;93725.19;;;2.75;94.15
73600;BME280;61877;48.246;9.220;2023-03-13T00:26:47;93723.00;;;2.77;93.95
73600;BME280;61877;48.246;9.220;2023-03-13T00:29:12;93716.66;;;2.78;94.15
73600;BME280;61877;48.246;9.220;2023-03-13T00:31:38;93723.19;;;2.81;93.98
73600;BME280;61877;48.246;9.220;2023-03-13T00:34:05;93723.38;;;2.84;93.91
73600;BME280;61877;48.246;9.220;2023-03-13T00:36:32;93719.06;;;2.88;94.15
73600;BME280;61877;48.246;9.220;2023-03-13T00:38:58;93720.03;;;2.92;94.29
73600;BME280;61877;48.246;9.220;2023-03-13T00:41:25;93720.53;;;2.94;93.93
73600;BME280;61877;48.246;9.220;2023-03-13T00:43:51;93706.66;;;2.97;93.98
73600;BME280;61877;48.246;9.220;2023-03-13T00:46:18;93719.91;;;2.97;93.61
73600;BME280;61877;48.246;9.220;2023-03-13T00:48:44;93711.88;;;3.02;93.93
73600;BME280;61877;48.246;9.220;2023-03-13T00:51:11;93721.84;;;3.05;93.73
73600;BME280;61877;48.246;9.220;2023-03-13T00:53:37;93718.31;;;3.10;93.68
73600;BME280;61877;48.246;9.220;2023-03-13T00:56:04;93708.88;;;3.17;93.71
73600;BME280;61877;48.246;9.220;2023-03-13T00:58:32;93715.91;;;3.22;93.10
73600;BME280;61877;48.246;9.220;2023-03-13T01:01:06;93717.88;;;3.30;93.10
73600;BME280;61877;48.246;9.220;2023-03-13T01:03:31;93710.06;;;3.33;92.82
73600;BME280;61877;48.246;9.220;2023-03-13T01:05:57;93708.81;;;3.31;93.41
73600;BME280;61877;48.246;9.220;2023-03-13T01:08:24;93709.91;;;3.30;93.67
73600;BME280;61877;48.246;9.220;2023-03-13T01:10:51;93708.03;;;3.30;93.47
73600;BME280;61877;48.246;9.220;2023-03-13T01:13:21;93710.75;;;3.39;93.01
73600;BME280;61877;48.246;9.220;2023-03-13T01:15:46;93713.88;;;3.41;93.12
73600;BME280;61877;48.246;9.220;2023-03-13T01:18:12;93700.13;;;3.39;93.18
73600;BME280;61877;48.246;9.220;2023-03-13T01:20:37;93691.69;;;3.37;92.99
73600;BME280;61877;48.246;9.220;2023-03-13T01:23:02;93697.59;;;3.34;93.06
73600;BME280;61877;48.246;9.220;2023-03-13T01:25:29;93698.22;;;3.31;93.45
73600;BME280;61877;48.246;9.220;2023-03-13T01:27:54;93688.09;;;3.33;93.63
73600;BME280;61877;48.246;9.220;2023-03-13T01:30:20;93683.56;;;3.33;94.12
73600;BME280;61877;48.246;9.220;2023-03-13T01:32:45;93690.31;;;3.39;93.54
73600;BME280;61877;48.246;9.220;2023-03-13T01:35:11;93681.09;;;3.37;94.00
73600;BME280;61877;48.246;9.220;2023-03-13T01:37:36;93674.41;;;3.39;93.98
73600;BME280;61877;48.246;9.220;2023-03-13T01:40:01;93678.13;;;3.38;94.28
73600;BME280;61877;48.246;9.220;2023-03-13T01:42:28;93671.28;;;3.37;94.00
73600;BME280;61877;48.246;9.220;2023-03-13T01:44:55;93681.09;;;3.37;94.16
73600;BME280;61877;48.246;9.220;2023-03-13T01:47:21;93677.38;;;3.38;94.47
73600;BME280;61877;48.246;9.220;2023-03-13T01:49:47;93668.88;;;3.49;95.61
73600;BME280;61877;48.246;9.220;2023-03-13T01:52:17;93672.56;;;3.70;96.56
73600;BME280;61877;48.246;9.220;2023-03-13T01:54:47;93667.78;;;4.20;97.17
73600;BME280;61877;48.246;9.220;2023-03-13T01:57:16;93661.50;;;4.64;96.61
73600;BME280;61877;48.246;9.220;2023-03-13T01:59:49;93654.31;;;4.90;94.94
73600;BME280;61877;48.246;9.220;2023-03-13T02:02:17;93648.22;;;4.98;93.98
73600;BME280;61877;48.246;9.220;2023-03-13T02:04:45;93652.28;;;5.12;94.58
73600;BME280;61877;48.246;9.220;2023-03-13T02:07:16;93651.81;;;5.19;92.92
73600;BME280;61877;48.246;9.220;2023-03-13T02:09:47;93660.88;;;5.35;93.26
73600;BME280;61877;48.246;9.220;2023-03-13T02:12:17;93654.78;;;5.43;92.08
73600;BME280;61877;48.246;9.220;2023-03-13T02:14:46;93649.13;;;5.45;91.77
73600;BME280;61877;48.246;9.220;2023-03-13T02:17:14;93646.16;;;5.46;92.08
73600;BME280;61877;48.246;9.220;2023-03-13T02:19:42;93646.47;;;5.53;91.17
73600;BME280;61877;48.246;9.220;2023-03-13T02:22:14;93644.25;;;5.64;91.35
73600;BME280;61877;48.246;9.220;2023-03-13T02:24:44;93642.66;;;5.71;91.01
73600;BME280;61877;48.246;9.220;2023-03-13T02:27:14;93631.22;;;5.71;90.71
73600;BME280;61877;48.246;9.220;2023-03-13T02:29:40;93634.38;;;5.73;90.74
73600;BME280;61877;48.246;9.220;2023-03-13T02:32:06;93621.81;;;5.82;90.24
73600;BME280;61877;48.246;9.220;2023-03-13T02:34:34;93622.44;;;5.79;90.63
73600;BME280;61877;48.246;9.220;2023-03-13T02:37:03;93620.25;;;5.89;89.91
73600;BME280;61877;48.246;9.220;2023-03-13T02:39:31;93631.00;;;6.01;89.59
73600;BME280;61877;48.246;9.220;2023-03-13T02:41:59;93620.56;;;5.88;89.67
73600;BME280;61877;48.246;9.220;2023-03-13T02:44:27;93634.34;;;5.81;90.01
73600;BME280;61877;48.246;9.220;2023-03-13T02:46:52;93626.38;;;5.73;89.92
73600;BME280;61877;48.246;9.220;2023-03-13T02:49:20;93621.38;;;5.71;90.24
73600;BME280;61877;48.246;9.220;2023-03-13T02:51:46;93606.38;;;5.67;90.47
73600;BME280;61877;48.246;9.220;2023-03-13T02:54:17;93607.00;;;5.64;90.69
73600;BME280;61877;48.246;9.220;2023-03-13T02:56:46;93589.63;;;5.58;90.87
73600;BME280;61877;48.246;9.220;2023-03-13T02:59:11;93579.78;;;5.58;91.19
73600;BME280;61877;48.246;9.220;2023-03-13T03:01:38;93584.03;;;5.51;91.15
73600;BME280;61877;48.246;9.220;2023-03-13T03:04:04;93594.63;;;5.59;91.89
73600;BME280;61877;48.246;9.220;2023-03-13T03:06:29;93589.13;;;5.73;90.45
73600;BME280;61877;48.246;9.220;2023-03-13T03:08:54;93585.66;;;5.81;90.28
73600;BME280;61877;48.246;9.220;2023-03-13T03:11:20;93575.63;;;5.86;89.76
73600;BME280;61877;48.246;9.220;2023-03-13T03:13:46;93568.75;;;5.85;89.87
73600;BME280;61877;48.246;9.220;2023-03-13T03:16:13;93563.84;;;5.96;89.75
73600;BME280;61877;48.246;9.220;2023-03-13T03:18:40;93555.91;;;5.87;89.99
73600;BME280;61877;48.246;9.220;2023-03-13T03:21:06;93553.97;;;5.96;89.85
73600;BME280;61877;48.246;9.220;2023-03-13T03:23:31;93555.38;;;5.94;89.22
73600;BME280;61877;48.246;9.220;2023-03-13T03:25:57;93557.88;;;5.99;88.59
73600;BME280;61877;48.246;9.220;2023-03-13T03:28:23;93556.19;;;5.94;89.44
73600;BME280;61877;48.246;9.220;2023-03-13T03:30:48;93541.31;;;5.93;89.29
73600;BME280;61877;48.246;9.220;2023-03-13T03:33:14;93550.13;;;5.85;89.60
73600;BME280;61877;48.246;9.220;2023-03-13T03:35:40;93537.31;;;6.08;88.75
73600;BME280;61877;48.246;9.220;2023-03-13T03:38:06;93527.03;;;5.98;88.77
73600;BME280;61877;48.246;9.220;2023-03-13T03:40:31;93530.22;;;5.91;89.40
73600;BME280;61877;48.246;9.220;2023-03-13T03:42:57;93535.53;;;5.91;89.37
73600;BME280;61877;48.246;9.220;2023-03-13T03:45:22;93536.34;;;5.83;89.46
73600;BME280;61877;48.246;9.220;2023-03-13T03:47:50;93531.50;;;5.77;89.60
73600;BME280;61877;48.246;9.220;2023-03-13T03:50:16;93527.53;;;5.91;89.46
73600;BME280;61877;48.246;9.220;2023-03-13T03:52:43;93536.06;;;6.05;88.73
73600;BME280;61877;48.246;9.220;2023-03-13T03:55:09;93535.31;;;6.05;88.79
73600;BME280;61877;48.246;9.220;2023-03-13T03:57:34;93522.19;;;6.20;88.13
73600;BME280;61877;48.246;9.220;2023-03-13T04:00:00;93523.78;;;6.21;87.96
73600;BME280;61877;48.246;9.220;2023-03-13T04:02:25;93517.78;;;6.24;87.63
73600;BME280;61877;48.246;9.220;2023-03-13T04:04:50;93507.31;;;6.19;87.64
73600;BME280;61877;48.246;9.220;2023-03-13T04:07:16;93521.44;;;6.20;87.55
73600;BME280;61877;48.246;9.220;2023-03-13T04:09:43;93527.97;;;6.22;87.62
73600;BME280;61877;48.246;9.220;2023-03-13T04:12:08;93522.25;;;6.12;87.93
73600;BME280;61877;48.246;9.220;2023-03-13T04:14:34;93526.28;;;6.18;88.07
73600;BME280;61877;48.246;9.220;2023-03-13T04:16:59;93529.47;;;6.11;87.88
73600;BME280;61877;48.246;9.220;2023-03-13T04:19:24;93533.22;;;6.10;88.29
73600;BME280;61877;48.246;9.220;2023-03-13T04:21:50;93532.97;;;6.03;88.43
73600;BME280;61877;48.246;9.220;2023-03-13T04:24:15;93522.84;;;6.17;87.78
73600;BME280;61877;48.246;9.220;2023-03-13T04:26:42;93520.50;;;6.16;87.88
73600;BME280;61877;48.246;9.220;2023-03-13T04:29:07;93525.03;;;6.15;87.75
73600;BME280;61877;48.246;9.220;2023-03-13T04:31:33;93524.41;;;6.18;88.33
73600;BME280;61877;48.246;9.220;2023-03-13T04:33:58;93522.97;;;6.21;88.09
73600;BME280;61877;48.246;9.220;2023-03-13T04:36:24;93513.13;;;6.21;88.07
73600;BME280;61877;48.246;9.220;2023-03-13T04:38:49;93515.59;;;6.26;87.71
73600;BME280;61877;48.246;9.220;2023-03-13T04:41:14;93505.69;;;6.27;87.85
73600;BME280;61877;48.246;9.220;2023-03-13T04:43:41;93500.19;;;6.32;87.50
73600;BME280;61877;48.246;9.220;2023-03-13T04:46:07;93491.94;;;6.25;87.59
73600;BME280;61877;48.246;9.220;2023-03-13T04:48:32;93495.03;;;6.27;87.42
73600;BME280;61877;48.246;9.220;2023-03-13T04:50:57;93493.97;;;6.28;86.99
73600;BME280;61877;48.246;9.220;2023-03-13T04:53:23;93499.59;;;6.26;87.54
73600;BME280;61877;48.246;9.220;2023-03-13T04:55:49;93500.13;;;6.20;87.17
73600;BME280;61877;48.246;9.220;2023-03-13T04:58:15;93503.13;;;6.18;87.93
73600;BME280;61877;48.246;9.220;2023-03-13T05:00:42;93496.06;;;6.14;87.63
73600;BME280;61877;48.246;9.220;2023-03-13T05:03:07;93505.66;;;6.15;88.00
73600;BME280;61877;48.246;9.220;2023-03-13T05:05:33;93515.50;;;6.14;88.32
73600;BME280;61877;48.246;9.220;2023-03-13T05:07:58;93498.94;;;6.09;87.97
73600;BME280;61877;48.246;9.220;2023-03-13T05:10:24;93485.47;;;6.05;88.52
73600;BME280;61877;48.246;9.220;2023-03-13T05:12:49;93488.78;;;6.02;87.87
73600;BME280;61877;48.246;9.220;2023-03-13T05:15:15;93486.97;;;5.94;88.13
73600;BME280;61877;48.246;9.220;2023-03-13T05:17:41;93489.69;;;5.86;88.33
73600;BME280;61877;48.246;9.220;2023-03-13T05:20:08;93478.56;;;5.84;88.13
73600;BME280;61877;48.246;9.220;2023-03-13T05:22:34;93476.59;;;6.01;87.62
73600;BME280;61877;48.246;9.220;2023-03-13T05:24:59;93477.06;;;6.03;88.04
73600;BME280;61877;48.246;9.220;2023-03-13T05:27:24;93483.47;;;6.02;87.84
73600;BME280;61877;48.246;9.220;2023-03-13T05:29:50;93476.91;;;6.00;87.70
73600;BME280;61877;48.246;9.220;2023-03-13T05:32:15;93474.50;;;6.07;87.87
73600;BME280;61877;48.246;9.220;2023-03-13T05:34:42;93492.25;;;6.03;88.03
73600;BME280;61877;48.246;9.220;2023-03-13T05:37:07;93498.78;;;6.05;88.08
73600;BME280;61877;48.246;9.220;2023-03-13T05:39:33;93501.13;;;6.07;87.85
73600;BME280;61877;48.246;9.220;2023-03-13T05:41:58;93484.78;;;6.17;88.26
73600;BME280;61877;48.246;9.220;2023-03-13T05:44:24;93490.56;;;6.19;87.91
73600;BME280;61877;48.246;9.220;2023-03-13T05:46:49;93496.94;;;6.26;86.96
73600;BME280;61877;48.246;9.220;2023-03-13T05:49:14;93502.41;;;6.30;87.77
73600;BME280;61877;48.246;9.220;2023-03-13T05:51:41;93493.25;;;6.39;87.42
73600;BME280;61877;48.246;9.220;2023-03-13T05:54:06;93491.81;;;6.42;86.89
73600;BME280;61877;48.246;9.220;2023-03-13T05:56:32;93495.38;;;6.46;87.47
73600;BME280;61877;48.246;9.220;2023-03-13T05:58:57;93493.06;;;6.44;87.35
73600;BME280;61877;48.246;9.220;2023-03-13T06:01:23;93482.84;;;6.46;87.76
73600;BME280;61877;48.246;9.220;2023-03-13T06:03:48;93481.53;;;6.52;87.66
73600;BME280;61877;48.246;9.220;2023-03-13T06:06:14;93482.31;;;6.53;87.62
73600;BME280;61877;48.246;9.220;2023-03-13T06:08:41;93480.41;;;6.53;87.66
73600;BME280;61877;48.246;9.220;2023-03-13T06:11:06;93484.78;;;6.58;88.04
73600;BME280;61877;48.246;9.220;2023-03-13T06:13:31;93466.03;;;6.67;87.84
73600;BME280;61877;48.246;9.220;2023-03-13T06:15:57;93457.22;;;6.75;87.76
73600;BME280;61877;48.246;9.220;2023-03-13T06:18:23;93445.88;;;6.78;87.49
73600;BME280;61877;48.246;9.220;2023-03-13T06:20:55;93443.56;;;6.88;87.15
73600;BME280;61877;48.246;9.220;2023-03-13T06:23:21;93436.94;;;6.94;87.31
73600;BME280;61877;48.246;9.220;2023-03-13T06:25:48;93445.47;;;7.00;86.73
73600;BME280;61877;48.246;9.220;2023-03-13T06:28:13;93444.38;;;7.01;86.80
73600;BME280;61877;48.246;9.220;2023-03-13T06:30:39;93439.84;;;7.13;85.89
73600;BME280;61877;48.246;9.220;2023-03-13T06:33:05;93441.31;;;7.23;86.16
73600;BME280;61877;48.246;9.220;2023-03-13T06:35:31;93436.09;;;7.26;86.22
73600;BME280;61877;48.246;9.220;2023-03-13T06:37:56;93442.44;;;7.34;85.65
73600;BME280;61877;48.246;9.220;2023-03-13T06:40:21;93451.00;;;7.39;84.91
73600;BME280;61877;48.246;9.220;2023-03-13T06:42:48;93460.81;;;7.47;85.12
73600;BME280;61877;48.246;9.220;2023-03-13T06:45:14;93453.13;;;7.58;84.50
73600;BME280;61877;48.246;9.220;2023-03-13T06:47:39;93457.25;;;7.67;83.90
73600;BME280;61877;48.246;9.220;2023-03-13T06:50:05;93450.13;;;7.59;84.95
73600;BME280;61877;48.246;9.220;2023-03-13T06:52:31;93443.13;;;7.79;84.56
73600;BME280;61877;48.246;9.220;2023-03-13T06:54:56;93448.00;;;7.89;84.84
73600;BME280;61877;48.246;9.220;2023-03-13T06:57:24;93451.44;;;8.02;85.00
73600;BME280;61877;48.246;9.220;2023-03-13T06:59:51;93446.16;;;8.29;85.21
73600;BME280;61877;48.246;9.220;2023-03-13T07:02:17;93434.81;;;8.32;84.73
73600;BME280;61877;48.246;9.220;2023-03-13T07:04:42;93439.81;;;8.73;84.33
73600;BME280;61877;48.246;9.220;2023-03-13T07:07:08;93437.78;;;8.98;83.32
73600;BME280;61877;48.246;9.220;2023-03-13T07:09:33;93433.34;;;9.33;82.32
73600;BME280;61877;48.246;9.220;2023-03-13T07:11:59;93435.16;;;9.45;81.90
73600;BME280;61877;48.246;9.220;2023-03-13T07:14:24;93431.59;;;9.41;81.75
73600;BME280;61877;48.246;9.220;2023-03-13T07:16:51;93448.47;;;9.41;81.18
73600;BME280;61877;48.246;9.220;2023-03-13T07:19:16;93448.13;;;9.58;81.15
73600;BME280;61877;48.246;9.220;2023-03-13T07:21:42;93454.81;;;9.83;80.75
73600;BME280;61877;48.246;9.220;2023-03-13T07:24:07;93456.31;;;9.81;80.51
73600;BME280;61877;48.246;9.220;2023-03-13T07:26:33;93453.25;;;10.13;79.23
73600;BME280;61877;48.246;9.220;2023-03-13T07:28:58;93456.19;;;10.24;78.46
73600;BME280;61877;48.246;9.220;2023-03-13T07:31:24;93450.47;;;10.25;78.61
73600;BME280;61877;48.246;9.220;2023-03-13T07:33:52;93453.47;;;10.39;78.74
73600;BME280;61877;48.246;9.220;2023-03-13T07:36:18;93450.22;;;10.69;77.46
73600;BME280;61877;48.246;9.220;2023-03-13T07:38:46;93451.34;;;10.87;76.87
73600;BME280;61877;48.246;9.220;2023-03-13T07:41:12;93454.97;;;10.94;76.08
73600;BME280;61877;48.246;9.220;2023-03-13T07:43:37;93457.78;;;11.01;76.02
73600;BME280;61877;48.246;9.220;2023-03-13T07:46:05;93455.44;;;11.19;75.56
73600;BME280;61877;48.246;9.220;2023-03-13T07:48:32;93457.75;;;11.20;76.22
73600;BME280;61877;48.246;9.220;2023-03-13T07:51:00;93453.41;;;11.35;75.86
73600;BME280;61877;48.246;9.220;2023-03-13T07:53:28;93465.84;;;11.43;75.40
73600;BME280;61877;48.246;9.220;2023-03-13T07:55:56;93453.34;;;11.31;75.96
73600;BME280;61877;48.246;9.220;2023-03-13T07:58:22;93456.25;;;11.42;75.02
73600;BME280;61877;48.246;9.220;2023-03-13T08:01:07;93449.78;;;11.46;75.42
73600;BME280;61877;48.246;9.220;2023-03-13T08:03:33;93451.53;;;11.35;76.28
73600;BME280;61877;48.246;9.220;2023-03-13T08:06:01;93437.47;;;11.64;75.06
73600;BME280;61877;48.246;9.220;2023-03-13T08:08:27;93436.84;;;11.75;74.82
73600;BME280;61877;48.246;9.220;2023-03-13T08:13:27;93424.03;;;11.91;74.30
73600;BME280;61877;48.246;9.220;2023-03-13T08:14:13;93416.94;;;12.02;73.99
73600;BME280;61877;48.246;9.220;2023-03-13T08:19:41;93423.44;;;12.01;73.63
73600;BME280;61877;48.246;9.220;2023-03-13T08:22:08;93418.72;;;11.94;73.87
73600;BME280;61877;48.246;9.220;2023-03-13T08:24:33;93434.72;;;12.10;73.44
73600;BME280;61877;48.246;9.220;2023-03-13T08:26:58;93427.81;;;12.09;73.55
73600;BME280;61877;48.246;9.220;2023-03-13T08:29:35;93414.81;;;12.14;73.53
73600;BME280;61877;48.246;9.220;2023-03-13T08:32:01;93426.19;;;12.04;73.88
73600;BME280;61877;48.246;9.220;2023-03-13T08:34:26;93421.03;;;11.92;73.97
73600;BME280;61877;48.246;9.220;2023-03-13T08:36:53;93401.47;;;11.95;74.54
73600;BME280;61877;48.246;9.220;2023-03-13T08:39:20;93401.38;;;12.14;73.82
73600;BME280;61877;48.246;9.220;2023-03-13T08:41:46;93397.56;;;12.15;73.34
73600;BME280;61877;48.246;9.220;2023-03-13T08:44:13;93408.66;;;12.14;74.27
73600;BME280;61877;48.246;9.220;2023-03-13T08:46:39;93421.81;;;12.22;73.46
73600;BME280;61877;48.246;9.220;2023-03-13T08:49:06;93412.59;;;12.20;73.88
73600;BME280;61877;48.246;9.220;2023-03-13T08:51:32;93414.59;;;12.56;72.54
73600;BME280;61877;48.246;9.220;2023-03-13T08:53:58;93393.97;;;12.67;71.31
73600;BME280;61877;48.246;9.220;2023-03-13T08:56:26;93384.53;;;12.80;71.07
73600;BME280;61877;48.246;9.220;2023-03-13T08:58:53;93375.13;;;13.00;70.44
73600;BME280;61877;48.246;9.220;2023-03-13T09:01:20;93370.66;;;13.11;69.78
73600;BME280;61877;48.246;9.220;2023-03-13T09:03:46;93387.69;;;13.22;69.27
73600;BME280;61877;48.246;9.220;2023-03-13T09:06:11;93369.09;;;13.10;69.66
73600;BME280;61877;48.246;9.220;2023-03-13T09:08:38;93357.53;;;13.06;69.45
73600;BME280;61877;48.246;9.220;2023-03-13T09:11:05;93370.59;;;13.04;70.57
73600;BME280;61877;48.246;9.220;2023-03-13T09:13:34;93364.78;;;13.02;69.83
73600;BME280;61877;48.246;9.220;2023-03-13T09:16:01;93368.06;;;13.22;69.90
73600;BME280;61877;48.246;9.220;2023-03-13T09:18:27;93368.28;;;13.43;69.56
73600;BME280;61877;48.246;9.220;2023-03-13T09:20:52;93364.69;;;13.32;68.23
73600;BME280;61877;48.246;9.220;2023-03-13T09:23:18;93373.38;;;13.51;68.57
73600;BME280;61877;48.246;9.220;2023-03-13T09:25:44;93372.56;;;13.51;67.70
73600;BME280;61877;48.246;9.220;2023-03-13T09:28:10;93366.91;;;13.66;67.81
73600;BME280;61877;48.246;9.220;2023-03-13T09:30:37;93380.91;;;13.82;66.45
73600;BME280;61877;48.246;9.220;2023-03-13T09:33:02;93377.47;;;13.85;66.08
73600;BME280;61877;48.246;9.220;2023-03-13T09:35:28;93390.25;;;13.95;65.40
73600;BME280;61877;48.246;9.220;2023-03-13T09:37:53;93400.19;;;14.35;63.77
73600;BME280;61877;48.246;9.220;2023-03-13T09:40:20;93373.31;;;14.60;63.53
73600;BME280;61877;48.246;9.220;2023-03-13T09:42:49;93392.59;;;14.62;62.49
73600;BME280;61877;48.246;9.220;2023-03-13T09:45:17;93381.88;;;14.83;61.90
73600;BME280;61877;48.246;9.220;2023-03-13T09:47:49;93388.50;;;14.96;60.70
73600;BME280;61877;48.246;9.220;2023-03-13T09:50:19;93374.31;;;15.23;60.85
73600;BME280;61877;48.246;9.220;2023-03-13T09:52:50;93389.09;;;15.75;58.12
73600;BME280;61877;48.246;9.220;2023-03-13T09:55:19;93382.88;;;15.71;57.39
73600;BME280;61877;48.246;9.220;2023-03-13T09:57:49;93404.91;;;15.98;56.86
73600;BME280;61877;48.246;9.220;2023-03-13T10:00:21;93406.06;;;15.65;56.95
73600;BME280;61877;48.246;9.220;2023-03-13T10:02:54;93410.97;;;15.28;57.29
73600;BME280;61877;48.246;9.220;2023-03-13T10:05:23;93401.97;;;14.92;57.68
73600;BME280;61877;48.246;9.220;2023-03-13T10:07:49;93382.72;;;15.01;57.73
73600;BME280;61877;48.246;9.220;2023-03-13T10:10:17;93362.00;;;15.54;57.10
73600;BME280;61877;48.246;9.220;2023-03-13T10:12:45;93368.22;;;15.86;55.88
73600;BME280;61877;48.246;9.220;2023-03-13T10:15:31;93370.13;;;15.96;56.02
73600;BME280;61877;48.246;9.220;2023-03-13T10:17:59;93379.81;;;15.87;54.52
73600;BME280;61877;48.246;9.220;2023-03-13T10:20:35;93367.28;;;15.01;57.04
73600;BME280;61877;48.246;9.220;2023-03-13T10:23:04;93367.31;;;15.08;56.67
73600;BME280;61877;48.246;9.220;2023-03-13T10:25:34;93359.59;;;15.07;57.35
73600;BME280;61877;48.246;9.220;2023-03-13T10:28:00;93355.28;;;14.85;57.91
73600;BME280;61877;48.246;9.220;2023-03-13T10:30:28;93357.28;;;15.02;57.79
73600;BME280;61877;48.246;9.220;2023-03-13T10:32:59;93344.56;;;15.30;57.06
73600;BME280;61877;48.246;9.220;2023-03-13T10:35:31;93346.50;;;15.23;57.14
73600;BME280;61877;48.246;9.220;2023-03-13T10:38:02;93347.75;;;15.50;56.02
73600;BME280;61877;48.246;9.220;2023-03-13T10:40:28;93339.94;;;15.24;56.50
73600;BME280;61877;48.246;9.220;2023-03-13T10:43:00;93343.03;;;15.22;56.32
73600;BME280;61877;48.246;9.220;2023-03-13T10:45:26;93322.63;;;15.57;55.63
73600;BME280;61877;48.246;9.220;2023-03-13T10:47:56;93313.34;;;15.82;54.93
73600;BME280;61877;48.246;9.220;2023-03-13T10:50:27;93315.16;;;16.41;53.58
73600;BME280;61877;48.246;9.220;2023-03-13T10:52:56;93311.81;;;17.03;51.79
73600;BME280;61877;48.246;9.220;2023-03-13T10:55:23;93327.19;;;17.16;51.59
73600;BME280;61877;48.246;9.220;2023-03-13T10:57:56;93323.38;;;16.06;52.63
73600;BME280;61877;48.246;9.220;2023-03-13T11:00:28;93307.06;;;16.34;53.38
73600;BME280;61877;48.246;9.220;2023-03-13T11:02:54;93292.53;;;16.87;52.75
73600;BME280;61877;48.246;9.220;2023-03-13T11:05:40;93294.06;;;17.53;50.40
73600;BME280;61877;48.246;9.220;2023-03-13T11:08:12;93292.88;;;17.57;49.86
73600;BME280;61877;48.246;9.220;2023-03-13T11:10:51;93278.94;;;17.96;47.88
73600;BME280;61877;48.246;9.220;2023-03-13T11:13:27;93274.72;;;17.51;48.82
73600;BME280;61877;48.246;9.220;2023-03-13T11:15:56;93266.00;;;17.73;48.60
73600;BME280;61877;48.246;9.220;2023-03-13T11:18:24;93274.66;;;18.02;48.73
73600;BME280;61877;48.246;9.220;2023-03-13T11:20:54;93275.88;;;18.31;48.38
73600;BME280;61877;48.246;9.220;2023-03-13T11:23:25;93275.75;;;18.75;46.74
73600;BME280;61877;48.246;9.220;2023-03-13T11:26:09;93261.47;;;18.00;48.12
73600;BME280;61877;48.246;9.220;2023-03-13T11:28:46;93254.22;;;18.61;47.42
73600;BME280;61877;48.246;9.220;2023-03-13T11:31:22;93248.31;;;19.50;46.46
73600;BME280;61877;48.246;9.220;2023-03-13T11:33:54;93230.78;;;20.39;45.12
73600;BME280;61877;48.246;9.220;2023-03-13T11:36:31;93227.94;;;20.04;43.56
73600;BME280;61877;48.246;9.220;2023-03-13T11:39:03;93221.13;;;20.15;42.90
73600;BME280;61877;48.246;9.220;2023-03-13T11:41:44;93211.75;;;19.74;43.67
73600;BME280;61877;48.246;9.220;2023-03-13T11:44:27;93202.91;;;20.32;44.52
73600;BME280;61877;48.246;9.220;2023-03-13T11:47:03;93202.63;;;20.66;42.53
73600;BME280;61877;48.246;9.220;2023-03-13T11:49:39;93195.06;;;21.09;42.32
73600;BME280;61877;48.246;9.220;2023-03-13T11:52:23;93198.50;;;21.77;41.30
73600;BME280;61877;48.246;9.220;2023-03-13T11:55:00;93190.13;;;21.84;40.60
73600;BME280;61877;48.246;9.220;2023-03-13T11:57:29;93186.72;;;21.80;39.33
73600;BME280;61877;48.246;9.220;2023-03-13T12:00:12;93175.88;;;22.62;39.27
73600;BME280;61877;48.246;9.220;2023-03-13T12:02:41;93171.63;;;22.61;38.64
73600;BME280;61877;48.246;9.220;2023-03-13T12:05:12;93162.66;;;22.61;38.90
73600;BME280;61877;48.246;9.220;2023-03-13T12:07:43;93166.41;;;21.81;39.60
73600;BME280;61877;48.246;9.220;2023-03-13T12:10:12;93165.75;;;23.00;38.34
73600;BME280;61877;48.246;9.220;2023-03-13T12:12:45;93146.59;;;23.51;38.05
73600;BME280;61877;48.246;9.220;2023-03-13T12:15:21;93146.25;;;23.95;37.37
73600;BME280;61877;48.246;9.220;2023-03-13T12:17:50;93127.66;;;23.78;38.41
73600;BME280;61877;48.246;9.220;2023-03-13T12:20:22;93127.06;;;23.95;37.13
73600;BME280;61877;48.246;9.220;2023-03-13T12:22:57;93128.44;;;23.78;37.59
73600;BME280;61877;48.246;9.220;2023-03-13T12:25:31;93104.63;;;23.88;36.88
73600;BME280;61877;48.246;9.220;2023-03-13T12:28:06;93114.94;;;23.84;37.22
73600;BME280;61877;48.246;9.220;2023-03-13T12:30:38;93106.94;;;24.33;36.89
73600;BME280;61877;48.246;9.220;2023-03-13T12:33:13;93106.22;;;23.17;38.18
73600;BME280;61877;48.246;9.220;2023-03-13T12:35:43;93097.63;;;24.52;36.06
73600;BME280;61877;48.246;9.220;2023-03-13T12:38:15;93089.91;;;24.38;35.36
73600;BME280;61877;48.246;9.220;2023-03-13T12:40:48;93081.41;;;24.66;35.26
73600;BME280;61877;48.246;9.220;2023-03-13T12:43:18;93078.34;;;24.95;35.82
73600;BME280;61877;48.246;9.220;2023-03-13T12:45:53;93063.50;;;24.53;36.04
73600;BME280;61877;48.246;9.220;2023-03-13T12:48:51;93044.16;;;24.56;35.18
73600;BME280;61877;48.246;9.220;2023-03-13T12:51:37;93049.34;;;24.54;34.56
73600;BME280;61877;48.246;9.220;2023-03-13T12:54:20;93035.19;;;25.44;33.37
73600;BME280;61877;48.246;9.220;2023-03-13T12:57:09;93021.84;;;24.05;33.19
73600;BME280;61877;48.246;9.220;2023-03-13T12:59:40;93014.63;;;25.00;33.59
73600;BME280;61877;48.246;9.220;2023-03-13T13:02:14;93007.28;;;24.79;33.17
73600;BME280;61877;48.246;9.220;2023-03-13T13:04:42;93016.72;;;24.16;33.59
73600;BME280;61877;48.246;9.220;2023-03-13T13:07:20;93002.97;;;24.69;35.55
73600;BME280;61877;48.246;9.220;2023-03-13T13:10:10;92987.63;;;24.50;33.96
73600;BME280;61877;48.246;9.220;2023-03-13T13:12:38;92994.22;;;25.19;32.46
73600;BME280;61877;48.246;9.220;2023-03-13T13:15:14;92986.25;;;24.14;33.90